createdAt,value
2022-12-29T00:00:25.732Z,-1.33
2022-12-29T00:03:15.613Z,-1.32
2022-12-29T00:05:44.884Z,-1.34
2022-12-29T00:08:12.327Z,-1.27
2022-12-29T00:10:39.373Z,-1.27
2022-12-29T00:13:25.276Z,-1.39
2022-12-29T00:15:52.545Z,-1.35
2022-12-29T00:18:20.098Z,-1.36
2022-12-29T00:21:08.355Z,-1.45
2022-12-29T00:23:55.866Z,-1.46
2022-12-29T00:26:43.852Z,-1.56
2022-12-29T00:29:30.088Z,-1.68
2022-12-29T00:32:15.920Z,-1.65
2022-12-29T00:35:02.008Z,-1.64
2022-12-29T00:37:49.126Z,-1.75
2022-12-29T00:40:35.255Z,-1.82
2022-12-29T00:43:25.604Z,-1.85
2022-12-29T00:45:52.914Z,-1.83
2022-12-29T00:48:39.969Z,-1.72
2022-12-29T00:51:08.614Z,-1.69
2022-12-29T00:53:35.933Z,-1.66
2022-12-29T00:56:03.322Z,-1.72
2022-12-29T00:58:31.555Z,-1.76
2022-12-29T01:01:07.347Z,-1.73
2022-12-29T01:03:38.396Z,-1.78
2022-12-29T01:06:09.036Z,-1.82
2022-12-29T01:08:38.547Z,-1.78
2022-12-29T01:11:08.628Z,-1.84
2022-12-29T01:13:36.856Z,-1.93
2022-12-29T01:16:06.981Z,-2.00
2022-12-29T01:18:35.620Z,-2.00
2022-12-29T01:21:07.398Z,-2.04
2022-12-29T01:23:34.570Z,-2.03
2022-12-29T01:26:12.688Z,-2.06
2022-12-29T01:28:41.208Z,-2.07
2022-12-29T01:31:13.014Z,-2.12
2022-12-29T01:33:40.860Z,-2.09
2022-12-29T01:36:11.745Z,-2.10
2022-12-29T01:38:41.566Z,-2.02
2022-12-29T01:41:13.536Z,-2.01
2022-12-29T01:43:47.081Z,-2.05
2022-12-29T01:46:38.134Z,-2.10
2022-12-29T01:49:21.874Z,-2.22
2022-12-29T01:51:49.168Z,-2.34
2022-12-29T01:54:23.899Z,-2.44
2022-12-29T01:56:54.625Z,-2.51
2022-12-29T01:59:27.295Z,-2.56
2022-12-29T02:01:55.748Z,-2.58
2022-12-29T02:04:26.037Z,-2.62
2022-12-29T02:07:06.630Z,-2.64
2022-12-29T02:09:35.445Z,-2.65
2022-12-29T02:12:03.375Z,-2.63
2022-12-29T02:14:31.084Z,-2.64
2022-12-29T02:17:12.459Z,-2.66
2022-12-29T02:20:01.926Z,-2.68
2022-12-29T02:22:56.745Z,-2.71
2022-12-29T02:25:35.735Z,-2.75
2022-12-29T02:28:40.982Z,-2.77
2022-12-29T02:31:32.652Z,-2.80
2022-12-29T02:34:02.266Z,-2.82
2022-12-29T02:37:07.056Z,-2.82
2022-12-29T02:39:56.725Z,-2.83
2022-12-29T02:42:37.354Z,-2.85
2022-12-29T02:45:13.711Z,-2.87
2022-12-29T02:48:55.362Z,-2.85
2022-12-29T02:51:29.848Z,-2.83
2022-12-29T02:54:18.126Z,-2.85
2022-12-29T02:56:45.877Z,-2.88
2022-12-29T02:59:13.605Z,-2.90
2022-12-29T03:02:16.095Z,-2.91
2022-12-29T03:05:02.763Z,-2.90
2022-12-29T03:08:00.522Z,-2.88
2022-12-29T03:10:27.538Z,-2.87
2022-12-29T03:13:21.910Z,-2.86
2022-12-29T03:16:06.605Z,-2.85
2022-12-29T03:18:53.274Z,-2.85
2022-12-29T03:21:48.681Z,-2.78
2022-12-29T03:24:26.610Z,-2.75
2022-12-29T03:26:57.972Z,-2.75
2022-12-29T03:29:32.409Z,-2.76
2022-12-29T03:32:01.889Z,-2.74
2022-12-29T03:34:32.535Z,-2.65
2022-12-29T03:37:11.099Z,-2.59
2022-12-29T03:39:38.712Z,-2.55
2022-12-29T03:42:16.225Z,-2.48
2022-12-29T03:44:46.477Z,-2.53
2022-12-29T03:47:16.214Z,-2.55
2022-12-29T03:49:46.319Z,-2.59
2022-12-29T03:52:13.422Z,-2.59
2022-12-29T03:54:44.688Z,-2.59
2022-12-29T03:57:12.896Z,-2.62
2022-12-29T03:59:56.939Z,-2.62
2022-12-29T04:02:25.156Z,-2.64
2022-12-29T04:04:58.570Z,-2.64
2022-12-29T04:07:25.683Z,-2.62
2022-12-29T04:09:54.951Z,-2.61
2022-12-29T04:12:24.771Z,-2.60
2022-12-29T04:14:52.215Z,-2.55
2022-12-29T04:17:20.238Z,-2.49
2022-12-29T04:20:13.003Z,-2.44
2022-12-29T04:22:40.033Z,-2.41
2022-12-29T04:25:07.948Z,-2.32
2022-12-29T04:27:35.349Z,-2.26
2022-12-29T04:30:38.600Z,-2.32
2022-12-29T04:33:26.627Z,-2.35
2022-12-29T04:35:55.480Z,-2.28
2022-12-29T04:38:25.232Z,-2.24
2022-12-29T04:40:53.475Z,-2.27
2022-12-29T04:43:23.757Z,-2.16
2022-12-29T04:46:13.595Z,-2.09
2022-12-29T04:48:56.592Z,-1.94
2022-12-29T04:51:56.387Z,-1.87
2022-12-29T04:54:24.409Z,-1.89
2022-12-29T04:57:00.370Z,-1.86
2022-12-29T04:59:27.624Z,-1.89
2022-12-29T05:01:58.828Z,-1.79
2022-12-29T05:04:26.191Z,-1.70
2022-12-29T05:06:53.912Z,-1.62
2022-12-29T05:09:21.174Z,-1.61
2022-12-29T05:11:48.577Z,-1.55
2022-12-29T05:14:15.631Z,-1.49
2022-12-29T05:16:44.218Z,-1.41
2022-12-29T05:19:11.314Z,-1.35
2022-12-29T05:21:39.429Z,-1.28
2022-12-29T05:24:06.803Z,-1.25
2022-12-29T05:26:36.902Z,-1.22
2022-12-29T05:29:24.182Z,-1.20
2022-12-29T05:31:51.834Z,-1.19
2022-12-29T05:34:19.890Z,-1.15
2022-12-29T05:36:47.874Z,-1.07
2022-12-29T05:39:15.946Z,-1.08
2022-12-29T05:41:49.377Z,-1.02
2022-12-29T05:44:18.810Z,-0.99
2022-12-29T05:46:51.714Z,-0.90
2022-12-29T05:49:33.899Z,-0.77
2022-12-29T05:52:08.988Z,-0.72
2022-12-29T05:54:36.230Z,-0.73
2022-12-29T05:57:09.985Z,-0.79
2022-12-29T05:59:38.363Z,-0.84
2022-12-29T06:02:06.630Z,-0.88
2022-12-29T06:04:35.010Z,-0.93
2022-12-29T06:07:02.524Z,-0.92
2022-12-29T06:09:40.260Z,-0.92
2022-12-29T06:12:08.776Z,-0.92
2022-12-29T06:14:37.056Z,-0.91
2022-12-29T06:17:05.390Z,-0.89
2022-12-29T06:19:33.430Z,-0.87
2022-12-29T06:22:03.091Z,-0.80
2022-12-29T06:24:33.626Z,-0.65
2022-12-29T06:27:01.230Z,-0.58
2022-12-29T06:29:33.401Z,-0.53
2022-12-29T06:32:00.824Z,-0.48
2022-12-29T06:34:29.659Z,-0.39
2022-12-29T06:36:57.187Z,-0.38
2022-12-29T06:39:24.434Z,-0.32
2022-12-29T06:42:21.224Z,-0.28
2022-12-29T06:44:59.911Z,-0.27
2022-12-29T06:47:27.859Z,-0.17
2022-12-29T06:49:57.224Z,-0.11
2022-12-29T06:52:25.236Z,-0.08
2022-12-29T06:54:52.380Z,-0.10
2022-12-29T06:57:20.131Z,-0.06
2022-12-29T06:59:47.413Z,-0.04
2022-12-29T07:02:20.669Z,-0.06
2022-12-29T07:04:48.119Z,-0.04
2022-12-29T07:07:15.652Z,0.00
2022-12-29T07:09:42.859Z,0.02
2022-12-29T07:12:10.519Z,0.06
2022-12-29T07:14:42.862Z,0.09
2022-12-29T07:17:11.535Z,0.13
2022-12-29T07:19:40.988Z,0.13
2022-12-29T07:22:09.122Z,0.15
2022-12-29T07:24:36.329Z,0.17
2022-12-29T07:27:03.884Z,0.27
2022-12-29T07:29:31.004Z,0.31
2022-12-29T07:31:58.457Z,0.33
2022-12-29T07:34:25.517Z,0.42
2022-12-29T07:36:52.821Z,0.42
2022-12-29T07:39:21.099Z,0.50
2022-12-29T07:41:48.591Z,0.50
2022-12-29T07:44:19.255Z,0.55
2022-12-29T07:47:05.694Z,0.61
2022-12-29T07:49:32.857Z,0.63
2022-12-29T07:52:02.703Z,0.66
2022-12-29T07:54:29.851Z,0.68
2022-12-29T07:56:58.695Z,0.69
2022-12-29T07:59:25.852Z,0.73
2022-12-29T08:01:53.625Z,0.72
2022-12-29T08:04:21.178Z,0.75
2022-12-29T08:06:48.970Z,0.82
2022-12-29T08:09:22.006Z,0.85
2022-12-29T08:11:50.133Z,0.85
2022-12-29T08:14:17.403Z,0.88
2022-12-29T08:16:44.972Z,0.84
2022-12-29T08:19:13.059Z,0.87
2022-12-29T08:21:40.621Z,0.88
2022-12-29T08:24:09.539Z,0.90
2022-12-29T08:26:37.164Z,0.83
2022-12-29T08:29:05.250Z,0.84
2022-12-29T08:31:32.717Z,0.83
2022-12-29T08:34:01.181Z,0.78
2022-12-29T08:36:28.739Z,0.82
2022-12-29T08:38:56.229Z,0.71
2022-12-29T08:41:23.961Z,0.75
2022-12-29T08:43:51.269Z,0.80
2022-12-29T08:46:18.876Z,0.79
2022-12-29T08:48:46.158Z,0.84
2022-12-29T08:51:18.211Z,0.79
2022-12-29T08:53:48.583Z,0.80
2022-12-29T08:56:18.439Z,0.74
2022-12-29T08:58:52.179Z,0.66
2022-12-29T09:01:20.430Z,0.70
2022-12-29T09:04:14.134Z,0.73
2022-12-29T09:06:40.144Z,0.80
2022-12-29T09:09:07.857Z,0.81
2022-12-29T09:11:37.675Z,0.89
2022-12-29T09:14:05.233Z,0.87
2022-12-29T09:16:33.382Z,0.82
2022-12-29T09:19:01.548Z,0.84
2022-12-29T09:21:29.117Z,0.84
2022-12-29T09:23:56.264Z,0.85
2022-12-29T09:26:23.847Z,0.78
2022-12-29T09:28:51.039Z,0.68
2022-12-29T09:31:18.865Z,0.72
2022-12-29T09:33:46.016Z,0.67
2022-12-29T09:36:15.724Z,0.63
2022-12-29T09:38:43.149Z,0.66
2022-12-29T09:41:31.803Z,0.72
2022-12-29T09:44:21.717Z,0.79
2022-12-29T09:46:52.730Z,0.80
2022-12-29T09:49:35.213Z,0.86
2022-12-29T09:52:14.539Z,0.86
2022-12-29T09:54:48.306Z,0.90
2022-12-29T09:57:33.486Z,0.86
2022-12-29T10:00:05.763Z,0.90
2022-12-29T10:02:44.845Z,0.85
2022-12-29T10:05:19.913Z,0.88
2022-12-29T10:08:05.888Z,0.83
2022-12-29T10:10:50.602Z,0.93
2022-12-29T10:13:23.208Z,0.93
2022-12-29T10:16:21.122Z,0.96
2022-12-29T10:19:00.735Z,0.97
2022-12-29T10:21:35.900Z,0.92
2022-12-29T10:24:08.581Z,0.90
2022-12-29T10:26:41.231Z,0.94
2022-12-29T10:29:18.020Z,0.99
2022-12-29T10:32:04.363Z,1.04
2022-12-29T10:34:39.244Z,1.10
2022-12-29T10:37:35.958Z,1.05
2022-12-29T10:40:19.725Z,1.15
2022-12-29T10:42:53.864Z,1.17
2022-12-29T10:45:25.010Z,1.30
2022-12-29T10:47:58.609Z,1.42
2022-12-29T10:50:27.756Z,1.56
2022-12-29T10:52:57.635Z,1.53
2022-12-29T10:55:37.608Z,1.59
2022-12-29T10:58:14.109Z,1.64
2022-12-29T11:00:43.316Z,1.67
2022-12-29T11:03:16.496Z,1.64
2022-12-29T11:06:04.179Z,1.47
2022-12-29T11:08:52.569Z,1.54
2022-12-29T11:11:34.765Z,1.58
2022-12-29T11:14:27.051Z,1.65
2022-12-29T11:17:02.663Z,1.54
2022-12-29T11:19:41.000Z,1.49
2022-12-29T11:22:26.253Z,1.38
2022-12-29T11:24:55.664Z,1.29
2022-12-29T11:27:25.460Z,1.35
2022-12-29T11:29:56.110Z,1.37
2022-12-29T11:32:29.519Z,1.44
2022-12-29T11:35:02.071Z,1.40
2022-12-29T11:37:40.306Z,1.41
2022-12-29T11:40:21.867Z,1.58
2022-12-29T11:42:54.478Z,1.70
2022-12-29T11:45:33.708Z,1.72
2022-12-29T11:48:07.456Z,1.65
2022-12-29T11:50:39.016Z,1.73
2022-12-29T11:53:28.650Z,1.80
2022-12-29T11:56:03.785Z,1.93
2022-12-29T11:58:37.726Z,1.98
2022-12-29T12:01:15.839Z,2.11
2022-12-29T12:04:05.371Z,2.12
2022-12-29T12:06:37.429Z,1.95
2022-12-29T12:09:15.539Z,1.86
2022-12-29T12:11:46.436Z,1.93
2022-12-29T12:14:39.767Z,1.91
2022-12-29T12:17:38.573Z,1.91
2022-12-29T12:20:33.992Z,1.85
2022-12-29T12:23:10.159Z,1.78
2022-12-29T12:25:42.830Z,1.79
2022-12-29T12:28:19.476Z,1.78
2022-12-29T12:30:51.427Z,1.81
2022-12-29T12:33:40.120Z,1.80
2022-12-29T12:36:43.169Z,1.92
2022-12-29T12:39:25.927Z,1.89
2022-12-29T12:41:59.503Z,1.83
2022-12-29T12:44:37.450Z,1.93
2022-12-29T12:47:47.502Z,1.96
2022-12-29T12:50:14.697Z,2.03
2022-12-29T12:53:17.062Z,1.99
2022-12-29T12:55:55.605Z,2.03
2022-12-29T12:58:46.729Z,2.01
2022-12-29T13:01:43.469Z,2.08
2022-12-29T13:04:17.115Z,2.11
2022-12-29T13:06:51.909Z,2.14
2022-12-29T13:09:48.967Z,2.18
2022-12-29T13:12:25.198Z,2.38
2022-12-29T13:15:16.412Z,2.52
2022-12-29T13:17:52.088Z,2.59
2022-12-29T13:20:43.847Z,2.82
2022-12-29T13:23:28.788Z,2.92
2022-12-29T13:25:59.128Z,2.82
2022-12-29T13:28:32.831Z,2.83
2022-12-29T13:31:14.087Z,2.73
2022-12-29T13:33:59.599Z,2.72
2022-12-29T13:36:29.934Z,2.71
2022-12-29T13:39:07.701Z,2.77
2022-12-29T13:41:42.735Z,2.72
2022-12-29T13:44:17.452Z,2.78
2022-12-29T13:46:47.754Z,2.79
2022-12-29T13:49:23.325Z,2.73
2022-12-29T13:52:00.508Z,2.85
2022-12-29T13:54:44.259Z,2.83
2022-12-29T13:57:42.409Z,2.78
2022-12-29T14:00:22.837Z,2.64
2022-12-29T14:03:32.472Z,2.55
2022-12-29T14:06:16.504Z,2.48
2022-12-29T14:08:46.216Z,2.44
2022-12-29T14:11:17.911Z,2.41
2022-12-29T14:13:49.044Z,2.36
2022-12-29T14:16:44.046Z,2.30
2022-12-29T14:19:25.136Z,2.21
2022-12-29T14:22:01.511Z,2.20
2022-12-29T14:24:28.945Z,2.19
2022-12-29T14:26:58.480Z,2.17
2022-12-29T14:29:26.174Z,2.10
2022-12-29T14:31:54.466Z,2.10
2022-12-29T14:34:22.065Z,2.05
2022-12-29T14:37:03.256Z,2.04
2022-12-29T14:39:30.776Z,2.02
2022-12-29T14:42:04.215Z,1.96
2022-12-29T14:44:32.160Z,1.94
2022-12-29T14:47:07.301Z,1.88
2022-12-29T14:49:45.580Z,1.93
2022-12-29T14:52:26.799Z,1.91
2022-12-29T14:54:58.792Z,1.93
2022-12-29T14:57:33.255Z,1.94
2022-12-29T15:00:08.010Z,1.94
2022-12-29T15:02:41.198Z,1.92
2022-12-29T15:05:28.548Z,1.96
2022-12-29T15:07:58.114Z,1.91
2022-12-29T15:10:33.357Z,1.85
2022-12-29T15:13:14.463Z,1.68
2022-12-29T15:15:42.528Z,1.56
2022-12-29T15:18:35.949Z,1.47
2022-12-29T15:21:06.157Z,1.37
2022-12-29T15:23:36.337Z,1.22
2022-12-29T15:26:07.756Z,1.14
2022-12-29T15:28:46.619Z,1.11
2022-12-29T15:31:30.244Z,1.14
2022-12-29T15:34:12.045Z,1.02
2022-12-29T15:36:42.378Z,0.94
2022-12-29T15:39:31.725Z,0.88
2022-12-29T15:42:17.298Z,0.84
2022-12-29T15:44:45.456Z,0.75
2022-12-29T15:47:22.759Z,0.82
2022-12-29T15:49:59.046Z,0.76
2022-12-29T15:52:34.807Z,0.70
2022-12-29T15:55:03.248Z,0.65
2022-12-29T15:57:38.979Z,0.69
2022-12-29T16:00:24.309Z,0.63
2022-12-29T16:02:52.077Z,0.62
2022-12-29T16:05:20.211Z,0.69
2022-12-29T16:07:57.313Z,0.74
2022-12-29T16:10:41.221Z,0.75
2022-12-29T16:13:32.254Z,0.69
2022-12-29T16:16:13.889Z,0.68
2022-12-29T16:18:41.375Z,0.68
2022-12-29T16:21:19.836Z,0.70
2022-12-29T16:23:51.653Z,0.73
2022-12-29T16:26:23.792Z,0.66
2022-12-29T16:29:00.566Z,0.70
2022-12-29T16:31:53.351Z,0.69
2022-12-29T16:34:29.814Z,0.71
2022-12-29T16:37:05.456Z,0.74
2022-12-29T16:39:32.877Z,0.75
2022-12-29T16:42:00.840Z,0.75
2022-12-29T16:44:31.629Z,0.70
2022-12-29T16:47:11.161Z,0.77
2022-12-29T16:49:42.898Z,0.80
2022-12-29T16:52:34.413Z,0.69
2022-12-29T16:55:02.751Z,0.62
2022-12-29T16:57:32.904Z,0.71
2022-12-29T17:00:03.649Z,0.75
2022-12-29T17:02:32.857Z,0.71
2022-12-29T17:05:00.598Z,0.68
2022-12-29T17:07:29.295Z,0.71
2022-12-29T17:09:56.742Z,0.82
2022-12-29T17:12:27.138Z,0.86
2022-12-29T17:14:57.039Z,0.90
2022-12-29T17:17:40.827Z,0.89
2022-12-29T17:20:21.205Z,0.90
2022-12-29T17:22:49.742Z,0.88
2022-12-29T17:25:20.830Z,0.87
2022-12-29T17:27:59.210Z,0.85
2022-12-29T17:30:34.097Z,0.84
2022-12-29T17:33:06.125Z,0.86
2022-12-29T17:35:33.825Z,0.92
2022-12-29T17:38:01.070Z,1.01
2022-12-29T17:40:32.540Z,1.09
2022-12-29T17:43:00.581Z,1.13
2022-12-29T17:45:32.884Z,1.13
2022-12-29T17:48:02.074Z,1.17
2022-12-29T17:50:31.662Z,1.21
2022-12-29T17:53:03.046Z,1.30
2022-12-29T17:55:37.200Z,1.37
2022-12-29T17:58:26.814Z,1.42
2022-12-29T18:00:59.905Z,1.44
2022-12-29T18:03:35.417Z,1.44
2022-12-29T18:06:08.626Z,1.45
2022-12-29T18:08:37.135Z,1.52
2022-12-29T18:11:06.406Z,1.60
2022-12-29T18:13:45.930Z,1.61
2022-12-29T18:16:14.755Z,1.59
2022-12-29T18:18:41.950Z,1.66
2022-12-29T18:21:16.883Z,1.67
2022-12-29T18:23:44.922Z,1.72
2022-12-29T18:26:27.664Z,1.75
2022-12-29T18:28:57.056Z,1.74
2022-12-29T18:31:25.985Z,1.76
2022-12-29T18:33:54.550Z,1.88
2022-12-29T18:36:22.261Z,1.90
2022-12-29T18:38:51.349Z,1.93
2022-12-29T18:41:23.957Z,1.94
2022-12-29T18:43:51.865Z,1.96
2022-12-29T18:46:23.071Z,1.99
2022-12-29T18:48:51.703Z,1.99
2022-12-29T18:51:24.158Z,2.00
2022-12-29T18:53:54.686Z,2.05
2022-12-29T18:56:23.774Z,2.08
2022-12-29T18:58:56.927Z,2.09
2022-12-29T19:01:28.048Z,2.14
2022-12-29T19:03:57.955Z,2.13
2022-12-29T19:06:25.883Z,2.16
2022-12-29T19:08:53.358Z,2.15
2022-12-29T19:11:21.160Z,2.19
2022-12-29T19:13:48.355Z,2.23
2022-12-29T19:16:21.200Z,2.27
2022-12-29T19:19:05.875Z,2.30
2022-12-29T19:21:37.393Z,2.34
2022-12-29T19:24:05.269Z,2.35
2022-12-29T19:26:36.753Z,2.37
2022-12-29T19:29:06.059Z,2.37
2022-12-29T19:31:34.231Z,2.36
2022-12-29T19:34:03.390Z,2.34
2022-12-29T19:36:31.883Z,2.38
2022-12-29T19:38:59.479Z,2.37
2022-12-29T19:41:27.323Z,2.40
2022-12-29T19:43:54.508Z,2.39
2022-12-29T19:46:25.681Z,2.44
2022-12-29T19:48:55.335Z,2.50
2022-12-29T19:51:22.937Z,2.51
2022-12-29T19:53:50.059Z,2.54
2022-12-29T19:56:18.085Z,2.66
2022-12-29T19:58:47.449Z,2.64
2022-12-29T20:01:18.574Z,2.71
2022-12-29T20:03:46.700Z,2.74
2022-12-29T20:06:17.600Z,2.73
2022-12-29T20:08:45.183Z,2.77
2022-12-29T20:11:15.857Z,2.81
2022-12-29T20:13:44.006Z,2.81
2022-12-29T20:16:18.469Z,2.86
2022-12-29T20:18:47.189Z,2.86
2022-12-29T20:21:20.568Z,2.86
2022-12-29T20:23:48.538Z,2.83
2022-12-29T20:26:29.410Z,2.83
2022-12-29T20:29:01.812Z,2.85
2022-12-29T20:31:40.924Z,2.89
2022-12-29T20:34:09.779Z,2.96
2022-12-29T20:36:39.859Z,2.91
2022-12-29T20:39:10.629Z,2.91
2022-12-29T20:41:38.137Z,2.92
2022-12-29T20:44:05.584Z,2.94
2022-12-29T20:46:41.027Z,2.94
2022-12-29T20:49:10.565Z,2.90
2022-12-29T20:52:05.291Z,2.92
2022-12-29T20:54:25.633Z,2.99
2022-12-29T20:56:55.599Z,2.97
2022-12-29T20:59:28.166Z,2.96
2022-12-29T21:01:57.371Z,2.91
2022-12-29T21:04:24.711Z,2.90
2022-12-29T21:06:52.244Z,2.82
2022-12-29T21:09:20.447Z,2.82
2022-12-29T21:11:48.813Z,2.75
2022-12-29T21:14:15.936Z,2.69
2022-12-29T21:16:47.212Z,2.67
2022-12-29T21:19:15.318Z,2.60
2022-12-29T21:21:42.666Z,2.54
2022-12-29T21:24:09.787Z,2.45
2022-12-29T21:26:37.189Z,2.36
2022-12-29T21:29:04.744Z,2.32
2022-12-29T21:31:35.146Z,2.31
2022-12-29T21:34:04.356Z,2.22
2022-12-29T21:36:33.157Z,2.23
2022-12-29T21:39:03.358Z,2.16
2022-12-29T21:41:31.992Z,2.11
2022-12-29T21:44:17.625Z,2.01
2022-12-29T21:46:47.852Z,1.96
2022-12-29T21:49:15.167Z,1.87
2022-12-29T21:51:53.842Z,1.85
2022-12-29T21:54:46.035Z,1.80
2022-12-29T21:57:34.200Z,1.65
2022-12-29T22:00:20.589Z,1.66
2022-12-29T22:03:07.064Z,1.69
2022-12-29T22:05:52.995Z,1.55
2022-12-29T22:08:39.188Z,1.50
2022-12-29T22:11:27.412Z,1.42
2022-12-29T22:13:56.406Z,1.38
2022-12-29T22:16:25.381Z,1.36
2022-12-29T22:18:53.206Z,1.33
2022-12-29T22:21:20.720Z,1.25
2022-12-29T22:23:48.224Z,1.25
2022-12-29T22:26:16.373Z,1.20
2022-12-29T22:28:48.366Z,1.11
2022-12-29T22:31:29.302Z,1.07
2022-12-29T22:33:58.328Z,1.06
2022-12-29T22:36:26.776Z,1.01
2022-12-29T22:38:54.561Z,1.06
2022-12-29T22:41:22.305Z,1.05
2022-12-29T22:43:49.760Z,1.07
2022-12-29T22:46:16.949Z,1.02
2022-12-29T22:48:44.430Z,0.96
2022-12-29T22:51:11.504Z,0.90
2022-12-29T22:53:40.710Z,0.85
2022-12-29T22:56:12.903Z,0.80
2022-12-29T22:58:42.758Z,0.79
2022-12-29T23:01:11.524Z,0.78
2022-12-29T23:03:39.543Z,0.78
2022-12-29T23:06:08.927Z,0.78
2022-12-29T23:08:38.670Z,0.76
2022-12-29T23:11:08.795Z,0.79
2022-12-29T23:13:37.541Z,0.73
2022-12-29T23:16:04.993Z,0.69
2022-12-29T23:18:32.693Z,0.67
2022-12-29T23:21:00.104Z,0.60
2022-12-29T23:24:05.916Z,0.53
2022-12-29T23:26:45.666Z,0.51
2022-12-29T23:29:16.496Z,0.51
2022-12-29T23:31:46.866Z,0.47
2022-12-29T23:34:18.249Z,0.42
2022-12-29T23:36:46.904Z,0.33
2022-12-29T23:39:19.914Z,0.36
2022-12-29T23:41:47.398Z,0.28
2022-12-29T23:44:15.039Z,0.23
2022-12-29T23:46:44.801Z,0.24
2022-12-29T23:49:12.939Z,0.19
2022-12-29T23:51:40.225Z,0.17
2022-12-29T23:54:07.997Z,0.15
2022-12-29T23:56:35.059Z,0.12
2022-12-29T23:59:06.402Z,0.08
